createdAt,value
2022-10-30T00:00:00.961Z,70.76
2022-10-30T00:01:00.929Z,70.76
2022-10-30T00:02:01.059Z,71.06
2022-10-30T00:03:01.531Z,70.66
2022-10-30T00:04:00.901Z,70.56
2022-10-30T00:05:00.884Z,70.79
2022-10-30T00:06:00.891Z,70.79
2022-10-30T00:07:00.864Z,71.50
2022-10-30T00:08:01.103Z,70.59
2022-10-30T00:09:00.850Z,71.00
2022-10-30T00:10:00.842Z,71.30
2022-10-30T00:11:00.817Z,70.96
2022-10-30T00:12:00.839Z,71.97
2022-10-30T00:13:00.795Z,71.60
2022-10-30T00:14:00.786Z,72.00
2022-10-30T00:15:00.774Z,71.60
2022-10-30T00:16:00.778Z,70.79
2022-10-30T00:17:00.774Z,71.20
2022-10-30T00:18:01.049Z,70.90
2022-10-30T00:19:00.729Z,71.00
2022-10-30T00:20:00.722Z,71.40
2022-10-30T00:22:33.673Z,71.20
2022-10-30T00:23:33.657Z,70.50
2022-10-30T00:24:33.642Z,71.50
2022-10-30T00:25:33.627Z,71.60
2022-10-30T00:26:33.629Z,71.20
2022-10-30T00:27:33.642Z,72.00
2022-10-30T00:28:33.595Z,72.31
2022-10-30T00:29:33.582Z,72.71
2022-10-30T00:30:33.584Z,72.31
2022-10-30T00:31:33.565Z,71.84
2022-10-30T00:32:33.562Z,72.61
2022-10-30T00:33:33.548Z,72.64
2022-10-30T00:34:33.528Z,73.25
2022-10-30T00:35:33.541Z,73.25
2022-10-30T00:36:41.101Z,73.35
2022-10-30T00:37:33.502Z,73.25
2022-10-30T00:38:33.491Z,73.14
2022-10-30T00:39:33.469Z,73.35
2022-10-30T00:40:33.467Z,73.55
2022-10-30T00:41:33.448Z,73.55
2022-10-30T00:42:33.439Z,73.95
2022-10-30T00:43:33.467Z,74.35
2022-10-30T00:44:33.427Z,74.99
2022-10-30T00:45:33.405Z,74.66
2022-10-30T00:46:33.390Z,74.69
2022-10-30T00:47:33.384Z,74.99
2022-10-30T00:48:33.384Z,74.99
2022-10-30T00:49:33.368Z,74.49
2022-10-30T00:50:33.350Z,74.79
2022-10-30T00:51:33.341Z,74.59
2022-10-30T00:52:33.324Z,74.59
2022-10-30T00:53:33.334Z,74.99
2022-10-30T00:54:33.320Z,74.99
2022-10-30T00:55:33.314Z,74.49
2022-10-30T00:56:33.281Z,74.59
2022-10-30T00:57:33.272Z,74.99
2022-10-30T00:58:33.260Z,75.10
2022-10-30T00:59:33.287Z,75.20
2022-10-30T01:00:33.238Z,74.99
2022-10-30T01:01:33.360Z,74.59
2022-10-30T01:02:33.350Z,74.63
2022-10-30T01:03:33.202Z,74.90
2022-10-30T01:04:33.200Z,74.69
2022-10-30T01:05:33.197Z,74.93
2022-10-30T01:06:33.174Z,74.63
2022-10-30T01:07:33.159Z,74.83
2022-10-30T01:08:33.243Z,74.73
2022-10-30T01:09:33.150Z,74.83
2022-10-30T01:10:33.135Z,74.83
2022-10-30T01:11:33.121Z,74.73
2022-10-30T01:12:33.104Z,73.82
2022-10-30T01:13:33.093Z,74.12
2022-10-30T01:14:33.095Z,74.73
2022-10-30T01:15:33.094Z,74.02
2022-10-30T01:16:33.072Z,73.62
2022-10-30T01:17:33.053Z,73.52
2022-10-30T01:18:33.039Z,73.62
2022-10-30T01:19:33.034Z,73.62
2022-10-30T01:20:33.020Z,73.58
2022-10-30T01:21:33.006Z,74.32
2022-10-30T01:22:33.007Z,74.52
2022-10-30T01:23:32.981Z,74.12
2022-10-30T01:24:33.002Z,74.02
2022-10-30T01:25:32.957Z,73.72
2022-10-30T01:26:32.946Z,73.72
2022-10-30T01:27:32.938Z,73.92
2022-10-30T01:28:32.945Z,74.52
2022-10-30T01:29:32.917Z,74.63
2022-10-30T01:30:32.908Z,74.63
2022-10-30T01:31:32.916Z,75.03
2022-10-30T01:32:32.877Z,75.54
2022-10-30T01:33:32.875Z,74.63
2022-10-30T01:34:32.924Z,74.83
2022-10-30T01:35:32.858Z,74.83
2022-10-30T01:36:32.834Z,75.67
2022-10-30T01:37:32.826Z,75.57
2022-10-30T01:38:32.813Z,75.67
2022-10-30T01:39:32.806Z,75.98
2022-10-30T01:40:32.819Z,76.07
2022-10-30T01:41:32.802Z,75.87
2022-10-30T01:42:32.771Z,75.77
2022-10-30T01:43:32.763Z,76.18
2022-10-30T01:44:32.744Z,75.98
2022-10-30T01:45:32.794Z,75.67
2022-10-30T01:46:32.729Z,76.38
2022-10-30T01:47:32.734Z,76.28
2022-10-30T01:48:32.704Z,76.88
2022-10-30T01:49:32.691Z,76.38
2022-10-30T01:50:32.699Z,76.28
2022-10-30T01:51:32.670Z,75.98
2022-10-30T01:52:32.654Z,76.48
2022-10-30T01:53:32.646Z,76.88
2022-10-30T01:54:32.631Z,76.31
2022-10-30T01:55:32.635Z,77.02
2022-10-30T01:56:32.633Z,76.82
2022-10-30T01:57:32.601Z,77.22
2022-10-30T01:58:32.598Z,77.12
2022-10-30T01:59:32.580Z,77.42
2022-10-30T02:00:32.573Z,77.32
2022-10-30T02:01:32.702Z,77.22
2022-10-30T02:02:32.706Z,76.82
2022-10-30T02:03:32.561Z,77.53
2022-10-30T02:04:32.520Z,77.73
2022-10-30T02:05:32.519Z,77.83
2022-10-30T02:06:32.516Z,77.62
2022-10-30T02:07:32.497Z,77.83
2022-10-30T02:08:32.493Z,78.03
2022-10-30T02:09:32.489Z,78.23
2022-10-30T02:10:32.461Z,77.93
2022-10-30T02:11:32.446Z,78.03
2022-10-30T02:12:32.430Z,78.13
2022-10-30T02:13:32.448Z,78.17
2022-10-30T02:14:32.413Z,78.13
2022-10-30T02:15:32.404Z,78.06
2022-10-30T02:16:32.387Z,78.27
2022-10-30T02:17:32.381Z,78.17
2022-10-30T02:18:32.424Z,78.27
2022-10-30T02:19:32.379Z,78.37
2022-10-30T02:20:32.340Z,78.71
2022-10-30T02:21:32.339Z,79.17
2022-10-30T02:22:32.415Z,79.01
2022-10-30T02:23:32.310Z,78.91
2022-10-30T02:24:32.316Z,79.01
2022-10-30T02:25:32.289Z,78.71
2022-10-30T02:26:32.275Z,79.32
2022-10-30T02:27:32.265Z,79.52
2022-10-30T02:28:32.267Z,79.21
2022-10-30T02:29:32.245Z,79.35
2022-10-30T02:30:32.246Z,79.55
2022-10-30T02:31:32.236Z,80.06
2022-10-30T02:32:32.206Z,79.86
2022-10-30T02:33:32.232Z,80.06
2022-10-30T02:34:32.195Z,79.66
2022-10-30T02:35:32.195Z,80.40
2022-10-30T02:36:32.183Z,80.46
2022-10-30T02:37:32.153Z,80.36
2022-10-30T02:38:32.147Z,80.60
2022-10-30T02:39:32.140Z,80.30
2022-10-30T02:40:32.127Z,81.11
2022-10-30T02:41:32.126Z,80.91
2022-10-30T02:42:32.094Z,80.84
2022-10-30T02:43:32.085Z,81.15
2022-10-30T02:44:32.090Z,81.05
2022-10-30T02:45:32.062Z,80.94
2022-10-30T02:46:32.047Z,80.74
2022-10-30T02:47:32.048Z,81.15
2022-10-30T02:48:32.056Z,81.85
2022-10-30T02:49:32.032Z,81.15
2022-10-30T02:50:32.010Z,81.65
2022-10-30T02:51:32.027Z,81.65
2022-10-30T02:52:31.986Z,81.59
2022-10-30T02:53:31.998Z,82.10
2022-10-30T02:54:31.988Z,82.20
2022-10-30T02:55:31.981Z,81.69
2022-10-30T02:56:31.938Z,82.30
2022-10-30T02:57:31.928Z,81.99
2022-10-30T02:58:31.915Z,82.30
2022-10-30T02:59:31.920Z,82.03
2022-10-30T03:00:31.894Z,82.54
2022-10-30T03:01:32.083Z,82.44
2022-10-30T03:02:31.874Z,82.75
2022-10-30T03:03:31.865Z,83.35
2022-10-30T03:04:31.852Z,82.95
2022-10-30T03:05:31.852Z,83.61
2022-10-30T03:06:31.834Z,83.35
2022-10-30T03:07:31.840Z,82.95
2022-10-30T03:08:31.807Z,83.45
2022-10-30T03:09:31.794Z,83.55
2022-10-30T03:10:31.783Z,83.49
2022-10-30T03:11:31.787Z,83.49
2022-10-30T03:12:31.778Z,83.25
2022-10-30T03:13:31.750Z,83.86
2022-10-30T03:14:31.738Z,83.86
2022-10-30T03:15:31.736Z,83.96
2022-10-30T03:16:31.742Z,83.96
2022-10-30T03:17:31.757Z,83.90
2022-10-30T03:18:31.695Z,83.80
2022-10-30T03:19:31.717Z,83.90
2022-10-30T03:20:31.670Z,84.00
2022-10-30T03:21:31.666Z,84.10
2022-10-30T03:22:31.658Z,84.10
2022-10-30T03:23:31.691Z,84.30
2022-10-30T03:24:31.625Z,84.20
2022-10-30T03:25:31.626Z,84.50
2022-10-30T03:26:31.615Z,84.10
2022-10-30T03:27:31.595Z,84.41
2022-10-30T03:28:31.583Z,85.11
2022-10-30T03:29:31.583Z,84.50
2022-10-30T03:30:31.565Z,84.50
2022-10-30T03:31:31.577Z,84.61
2022-10-30T03:32:31.559Z,84.41
2022-10-30T03:33:31.553Z,85.11
2022-10-30T03:34:31.517Z,84.70
2022-10-30T03:35:31.519Z,84.70
2022-10-30T03:36:31.495Z,85.52
2022-10-30T03:37:31.483Z,84.91
2022-10-30T03:38:31.474Z,84.64
2022-10-30T03:39:31.482Z,84.24
2022-10-30T03:40:31.460Z,85.15
2022-10-30T03:41:31.446Z,85.62
2022-10-30T03:42:31.425Z,85.46
2022-10-30T03:43:31.422Z,85.36
2022-10-30T03:44:31.402Z,85.56
2022-10-30T03:45:31.399Z,85.46
2022-10-30T03:46:31.394Z,85.25
2022-10-30T03:47:31.383Z,85.66
2022-10-30T03:48:31.367Z,85.93
2022-10-30T03:49:31.353Z,85.46
2022-10-30T03:50:31.337Z,85.11
2022-10-30T03:51:31.437Z,85.36
2022-10-30T03:52:31.343Z,85.11
2022-10-30T03:53:31.323Z,85.66
2022-10-30T03:54:31.296Z,85.86
2022-10-30T03:55:31.306Z,85.76
2022-10-30T03:56:31.291Z,85.66
2022-10-30T03:57:31.264Z,85.46
2022-10-30T03:58:31.262Z,85.76
2022-10-30T03:59:31.250Z,85.56
2022-10-30T04:00:31.240Z,85.86
2022-10-30T04:01:31.440Z,85.76
2022-10-30T04:02:31.204Z,85.56
2022-10-30T04:03:31.197Z,85.05
2022-10-30T04:04:31.186Z,85.56
2022-10-30T04:05:31.207Z,85.82
2022-10-30T04:06:31.161Z,85.46
2022-10-30T04:07:31.158Z,85.46
2022-10-30T04:08:31.138Z,85.56
2022-10-30T04:09:31.136Z,85.46
2022-10-30T04:10:31.116Z,85.56
2022-10-30T04:11:31.215Z,85.76
2022-10-30T04:12:31.114Z,85.66
2022-10-30T04:13:31.081Z,85.52
2022-10-30T04:14:31.071Z,85.52
2022-10-30T04:15:31.065Z,85.11
2022-10-30T04:16:31.052Z,84.91
2022-10-30T04:17:31.077Z,84.50
2022-10-30T04:18:31.025Z,85.01
2022-10-30T04:19:31.022Z,85.11
2022-10-30T04:20:31.006Z,85.31
2022-10-30T04:21:30.996Z,85.31
2022-10-30T04:22:30.984Z,85.21
2022-10-30T04:23:30.991Z,84.91
2022-10-30T04:24:30.972Z,84.61
2022-10-30T04:25:30.963Z,84.81
2022-10-30T04:26:30.954Z,84.61
2022-10-30T04:27:30.964Z,85.42
2022-10-30T04:28:30.923Z,85.62
2022-10-30T04:29:30.919Z,85.52
2022-10-30T04:30:30.895Z,85.21
2022-10-30T04:31:30.885Z,85.01
2022-10-30T04:32:30.871Z,84.61
2022-10-30T04:33:30.878Z,84.61
2022-10-30T04:34:30.855Z,84.30
2022-10-30T04:35:30.840Z,85.01
2022-10-30T04:36:30.827Z,84.81
2022-10-30T04:37:30.817Z,84.70
2022-10-30T04:38:30.805Z,85.21
2022-10-30T04:39:30.816Z,85.31
2022-10-30T04:40:30.780Z,85.52
2022-10-30T04:41:30.777Z,85.52
2022-10-30T04:42:30.762Z,85.42
2022-10-30T04:43:30.803Z,85.42
2022-10-30T04:44:30.737Z,85.56
2022-10-30T04:45:30.735Z,85.42
2022-10-30T04:46:30.716Z,85.25
2022-10-30T04:47:30.706Z,85.52
2022-10-30T04:48:30.692Z,85.66
2022-10-30T04:49:30.694Z,85.21
2022-10-30T04:50:30.670Z,85.31
2022-10-30T04:51:30.669Z,85.11
2022-10-30T04:52:30.661Z,85.01
2022-10-30T04:53:30.641Z,85.36
2022-10-30T04:54:30.633Z,85.36
2022-10-30T04:55:30.617Z,85.62
2022-10-30T04:56:30.621Z,85.42
2022-10-30T04:57:30.597Z,85.31
2022-10-30T04:58:30.594Z,85.36
2022-10-30T04:59:30.590Z,85.36
2022-10-30T05:00:30.561Z,85.66
2022-10-30T05:01:30.696Z,85.05
2022-10-30T05:02:30.743Z,84.64
2022-10-30T05:03:30.542Z,84.55
2022-10-30T05:04:30.517Z,85.05
2022-10-30T05:05:30.501Z,85.46
2022-10-30T05:06:30.512Z,85.36
2022-10-30T05:07:30.483Z,85.76
2022-10-30T05:08:30.477Z,85.36
2022-10-30T05:09:30.468Z,85.60
2022-10-30T05:10:30.452Z,85.96
2022-10-30T05:11:30.443Z,85.50
2022-10-30T05:12:30.428Z,85.09
2022-10-30T05:13:30.411Z,85.50
2022-10-30T05:14:30.411Z,85.50
2022-10-30T05:15:30.413Z,85.30
2022-10-30T05:16:30.396Z,85.39
2022-10-30T05:18:30.363Z,85.50
2022-10-30T05:19:30.348Z,85.50
2022-10-30T05:20:30.351Z,86.10
2022-10-30T05:21:30.331Z,86.10
2022-10-30T05:22:30.315Z,86.21
2022-10-30T05:23:30.308Z,86.25
2022-10-30T05:24:30.296Z,86.25
2022-10-30T05:25:30.299Z,86.55
2022-10-30T05:26:30.287Z,86.35
2022-10-30T05:27:30.257Z,86.45
2022-10-30T05:28:30.253Z,86.35
2022-10-30T05:29:30.238Z,86.05
2022-10-30T05:30:30.230Z,86.25
2022-10-30T05:31:30.240Z,86.65
2022-10-30T05:32:30.220Z,86.49
2022-10-30T05:33:30.196Z,86.69
2022-10-30T05:34:30.188Z,86.80
2022-10-30T05:35:30.168Z,87.40
2022-10-30T05:36:30.175Z,87.00
2022-10-30T05:37:30.156Z,87.00
2022-10-30T05:38:30.141Z,87.10
2022-10-30T05:39:30.130Z,87.00
2022-10-30T05:40:30.116Z,87.24
2022-10-30T05:41:30.115Z,87.24
2022-10-30T05:42:30.093Z,87.95
2022-10-30T05:43:30.106Z,88.26
2022-10-30T05:44:55.067Z,88.26
2022-10-30T05:45:31.057Z,87.75
2022-10-30T05:46:30.047Z,88.16
2022-10-30T05:47:30.070Z,88.46
2022-10-30T05:48:30.050Z,88.76
2022-10-30T05:49:30.030Z,88.36
2022-10-30T05:50:30.009Z,88.16
2022-10-30T05:51:29.992Z,88.16
2022-10-30T05:52:29.978Z,87.85
2022-10-30T05:53:29.976Z,88.16
2022-10-30T05:54:29.976Z,88.06
2022-10-30T05:55:29.944Z,88.40
2022-10-30T05:56:29.935Z,88.20
2022-10-30T05:57:29.930Z,88.20
2022-10-30T05:58:29.922Z,87.99
2022-10-30T05:59:29.901Z,88.30
2022-10-30T06:00:29.907Z,88.50
2022-10-30T06:01:30.005Z,89.01
2022-10-30T06:02:29.931Z,88.71
2022-10-30T06:03:29.893Z,88.71
2022-10-30T06:04:29.853Z,88.71
2022-10-30T06:05:29.852Z,88.91
2022-10-30T06:06:29.826Z,89.01
2022-10-30T06:07:29.811Z,89.11
2022-10-30T06:08:29.815Z,88.30
2022-10-30T06:09:29.803Z,87.99
2022-10-30T06:10:29.788Z,88.20
2022-10-30T06:11:29.781Z,88.10
2022-10-30T06:12:29.763Z,88.20
2022-10-30T06:13:29.745Z,88.30
2022-10-30T06:14:29.755Z,88.20
2022-10-30T06:15:29.726Z,88.44
2022-10-30T06:16:29.722Z,89.11
2022-10-30T06:17:29.712Z,88.81
2022-10-30T06:18:29.695Z,88.91
2022-10-30T06:19:29.707Z,88.81
2022-10-30T06:20:29.678Z,88.71
2022-10-30T06:21:29.672Z,88.71
2022-10-30T06:22:29.656Z,88.81
2022-10-30T06:23:29.655Z,88.81
2022-10-30T06:24:29.624Z,88.65
2022-10-30T06:25:29.613Z,88.54
2022-10-30T06:26:29.623Z,88.85
2022-10-30T06:27:29.591Z,88.95
2022-10-30T06:28:29.596Z,88.50
2022-10-30T06:29:29.571Z,88.85
2022-10-30T06:30:29.559Z,88.34
2022-10-30T06:31:29.547Z,88.85
2022-10-30T06:32:29.578Z,88.75
2022-10-30T06:33:29.527Z,88.95
2022-10-30T06:34:29.516Z,89.87
2022-10-30T06:35:29.522Z,89.56
2022-10-30T06:36:29.495Z,90.07
2022-10-30T06:37:29.489Z,89.66
2022-10-30T06:38:29.500Z,90.17
2022-10-30T06:39:29.465Z,89.56
2022-10-30T06:40:29.455Z,89.15
2022-10-30T06:41:30.669Z,89.00
2022-10-30T06:42:29.433Z,89.05
2022-10-30T06:43:29.415Z,88.89
2022-10-30T06:44:29.424Z,89.05
2022-10-30T06:45:29.392Z,89.30
2022-10-30T06:46:33.406Z,89.66
2022-10-30T06:47:29.372Z,89.97
2022-10-30T06:48:29.389Z,89.70
2022-10-30T06:49:29.361Z,89.76
2022-10-30T06:50:36.448Z,89.46
2022-10-30T06:51:29.332Z,89.66
2022-10-30T06:52:29.327Z,89.66
2022-10-30T06:53:29.309Z,89.87
2022-10-30T06:54:29.312Z,89.26
2022-10-30T06:55:29.289Z,89.87
2022-10-30T06:56:29.294Z,89.42
2022-10-30T06:57:29.261Z,90.07
2022-10-30T06:58:29.276Z,89.87
2022-10-30T06:59:29.246Z,89.76
2022-10-30T07:00:29.238Z,89.66
2022-10-30T07:01:29.263Z,89.76
2022-10-30T07:02:29.293Z,89.66
2022-10-30T07:03:29.230Z,89.83
2022-10-30T07:04:29.204Z,89.72
2022-10-30T07:05:29.171Z,89.62
2022-10-30T07:06:29.184Z,89.72
2022-10-30T07:07:29.152Z,90.03
2022-10-30T07:08:29.162Z,89.31
2022-10-30T07:09:29.140Z,89.62
2022-10-30T07:10:29.174Z,90.03
2022-10-30T07:11:29.109Z,90.03
2022-10-30T07:12:29.099Z,89.83
2022-10-30T07:13:29.085Z,89.72
2022-10-30T07:14:29.089Z,90.03
2022-10-30T07:15:29.158Z,90.13
2022-10-30T07:16:29.059Z,89.92
2022-10-30T07:17:29.043Z,90.23
2022-10-30T07:18:29.033Z,89.72
2022-10-30T07:19:29.024Z,89.83
2022-10-30T07:20:29.145Z,90.23
2022-10-30T07:21:28.997Z,89.78
2022-10-30T07:22:29.007Z,89.78
2022-10-30T07:23:28.985Z,89.78
2022-10-30T07:24:28.969Z,90.13
2022-10-30T07:25:29.028Z,90.09
2022-10-30T07:26:28.952Z,90.29
2022-10-30T07:27:28.935Z,90.29
2022-10-30T07:28:28.921Z,90.14
2022-10-30T07:29:28.918Z,90.09
2022-10-30T07:30:28.907Z,90.45
2022-10-30T07:31:41.753Z,90.35
2022-10-30T07:32:29.880Z,90.05
2022-10-30T07:33:28.866Z,89.74
2022-10-30T07:34:28.859Z,89.64
2022-10-30T07:35:28.843Z,89.64
2022-10-30T07:36:28.864Z,89.64
2022-10-30T07:37:28.857Z,89.84
2022-10-30T07:38:28.836Z,89.64
2022-10-30T07:39:28.801Z,89.84
2022-10-30T07:40:28.793Z,89.70
2022-10-30T07:41:28.788Z,89.70
2022-10-30T07:42:28.764Z,89.59
2022-10-30T07:43:28.760Z,89.80
2022-10-30T07:44:28.747Z,89.59
2022-10-30T07:45:28.724Z,89.59
2022-10-30T07:46:28.720Z,89.35
2022-10-30T07:47:28.712Z,89.35
2022-10-30T07:48:28.725Z,89.45
2022-10-30T07:49:28.689Z,89.35
2022-10-30T07:50:28.779Z,88.49
2022-10-30T07:51:28.665Z,88.54
2022-10-30T07:52:28.649Z,88.60
2022-10-30T07:53:28.643Z,88.70
2022-10-30T07:54:28.661Z,88.40
2022-10-30T07:55:28.618Z,88.25
2022-10-30T07:56:28.621Z,88.35
2022-10-30T07:57:28.600Z,88.11
2022-10-30T07:58:28.591Z,88.21
2022-10-30T07:59:28.592Z,87.71
2022-10-30T08:00:28.658Z,87.97
2022-10-30T08:01:28.720Z,87.32
2022-10-30T08:02:28.754Z,86.51
2022-10-30T08:03:28.536Z,86.77
2022-10-30T08:04:28.526Z,85.56
2022-10-30T08:05:29.943Z,84.65
2022-10-30T08:06:28.499Z,84.31
2022-10-30T08:07:28.497Z,84.51
2022-10-30T08:08:28.480Z,84.06
2022-10-30T08:09:28.478Z,82.35
2022-10-30T08:10:28.470Z,81.87
2022-10-30T08:11:28.447Z,81.93
2022-10-30T08:12:28.438Z,79.77
2022-10-30T08:13:28.422Z,79.23
2022-10-30T08:14:28.416Z,78.79
2022-10-30T08:15:28.398Z,78.15
2022-10-30T08:16:28.386Z,75.63
2022-10-30T08:17:28.374Z,76.23
2022-10-30T08:18:28.391Z,75.79
2022-10-30T08:19:28.365Z,75.79
2022-10-30T08:20:28.339Z,76.26
2022-10-30T08:21:28.330Z,76.06
2022-10-30T08:22:28.340Z,75.46
2022-10-30T08:23:28.318Z,74.45
2022-10-30T08:24:28.307Z,74.65
2022-10-30T08:25:28.311Z,74.62
2022-10-30T08:26:28.294Z,74.75
2022-10-30T08:27:28.270Z,74.85
2022-10-30T08:28:31.680Z,74.55
2022-10-30T08:29:28.248Z,74.89
2022-10-30T08:30:28.233Z,74.99
2022-10-30T08:31:28.214Z,75.09
2022-10-30T08:32:28.220Z,74.49
2022-10-30T08:33:28.203Z,75.73
2022-10-30T08:34:28.194Z,76.10
2022-10-30T08:35:28.202Z,76.50
2022-10-30T08:36:28.175Z,76.20
2022-10-30T08:37:28.151Z,75.90
2022-10-30T08:38:28.146Z,75.29
2022-10-30T08:39:28.131Z,75.49
2022-10-30T08:40:28.136Z,75.39
2022-10-30T08:41:28.136Z,75.39
2022-10-30T08:42:28.118Z,75.39
2022-10-30T08:43:28.084Z,75.49
2022-10-30T08:44:28.089Z,75.79
2022-10-30T08:45:31.022Z,76.06
2022-10-30T08:46:28.057Z,75.76
2022-10-30T08:47:28.039Z,75.15
2022-10-30T08:48:28.034Z,74.75
2022-10-30T08:49:28.020Z,75.56
2022-10-30T08:50:28.041Z,74.85
2022-10-30T08:51:28.003Z,74.95
2022-10-30T08:52:27.994Z,75.15
2022-10-30T08:53:27.984Z,75.76
2022-10-30T08:54:27.963Z,75.32
2022-10-30T08:55:27.959Z,74.95
2022-10-30T08:56:27.947Z,75.35
2022-10-30T08:57:27.939Z,75.86
2022-10-30T08:58:27.940Z,75.79
2022-10-30T08:59:27.941Z,75.90
2022-10-30T09:00:27.916Z,75.79
2022-10-30T09:01:28.043Z,75.99
2022-10-30T09:02:28.007Z,75.49
2022-10-30T09:03:27.862Z,76.60
2022-10-30T09:04:27.863Z,75.70
2022-10-30T09:05:27.843Z,75.46
2022-10-30T09:06:27.837Z,75.76
2022-10-30T09:07:27.832Z,75.46
2022-10-30T09:08:27.817Z,75.12
2022-10-30T09:09:27.803Z,74.85
2022-10-30T09:10:27.790Z,74.62
2022-10-30T09:11:27.783Z,74.62
2022-10-30T09:12:27.789Z,74.62
2022-10-30T09:13:27.759Z,74.82
2022-10-30T09:14:27.767Z,74.68
2022-10-30T09:15:27.742Z,74.68
2022-10-30T09:16:27.722Z,74.78
2022-10-30T09:17:27.710Z,74.78
2022-10-30T09:18:27.708Z,74.48
2022-10-30T09:19:27.693Z,74.78
2022-10-30T09:20:27.683Z,74.35
2022-10-30T09:21:27.676Z,74.74
2022-10-30T09:22:27.668Z,73.84
2022-10-30T09:23:27.654Z,72.94
2022-10-30T09:24:27.639Z,73.44
2022-10-30T09:25:27.625Z,72.80
2022-10-30T09:26:27.611Z,72.80
2022-10-30T09:27:27.615Z,72.71
2022-10-30T09:28:27.611Z,72.50
2022-10-30T09:29:27.582Z,72.90
2022-10-30T09:30:27.587Z,73.10
2022-10-30T09:31:27.562Z,72.67
2022-10-30T09:32:27.549Z,72.37
2022-10-30T09:33:27.545Z,72.03
2022-10-30T09:35:27.521Z,72.24
2022-10-30T09:36:27.501Z,71.73
2022-10-30T09:37:27.502Z,71.73
2022-10-30T09:38:27.500Z,72.24
2022-10-30T09:39:27.470Z,72.03
2022-10-30T09:40:27.456Z,72.33
2022-10-30T09:41:27.457Z,72.43
2022-10-30T09:42:27.437Z,72.53
2022-10-30T09:43:27.431Z,72.27
2022-10-30T09:44:27.432Z,72.56
2022-10-30T09:45:30.125Z,72.37
2022-10-30T09:46:27.408Z,71.86
2022-10-30T09:47:27.381Z,72.97
2022-10-30T09:48:27.370Z,72.87
2022-10-30T09:49:27.367Z,73.03
2022-10-30T09:50:27.361Z,72.83
2022-10-30T09:51:27.349Z,72.43
2022-10-30T09:52:27.330Z,72.53
2022-10-30T09:53:27.322Z,71.97
2022-10-30T09:54:27.302Z,72.97
2022-10-30T09:55:27.313Z,73.07
2022-10-30T09:56:27.286Z,72.97
2022-10-30T09:57:27.268Z,72.74
2022-10-30T09:58:27.258Z,73.24
2022-10-30T09:59:27.262Z,72.70
2022-10-30T10:00:27.249Z,72.24
2022-10-30T10:01:27.337Z,72.33
2022-10-30T10:02:27.369Z,72.40
2022-10-30T10:03:27.220Z,72.53
2022-10-30T10:04:27.447Z,72.53
2022-10-30T10:05:27.195Z,72.63
2022-10-30T10:06:27.172Z,73.24
2022-10-30T10:07:27.191Z,71.93
2022-10-30T10:08:27.149Z,72.43
2022-10-30T10:09:27.136Z,72.83
2022-10-30T10:10:27.135Z,72.83
2022-10-30T10:11:27.123Z,72.94
2022-10-30T10:12:27.100Z,72.94
2022-10-30T10:13:27.096Z,72.74
2022-10-30T10:14:27.084Z,72.13
2022-10-30T10:15:27.108Z,72.50
2022-10-30T10:16:27.061Z,72.40
2022-10-30T10:17:27.066Z,72.50
2022-10-30T10:18:27.111Z,71.90
2022-10-30T10:19:27.029Z,72.77
2022-10-30T10:20:27.014Z,72.56
2022-10-30T10:21:27.016Z,71.56
2022-10-30T10:22:26.997Z,71.96
2022-10-30T10:23:27.027Z,71.36
2022-10-30T10:24:26.971Z,71.46
2022-10-30T10:25:26.961Z,71.77
2022-10-30T10:26:26.958Z,71.36
2022-10-30T10:27:26.940Z,70.93
2022-10-30T10:28:26.936Z,71.56
2022-10-30T10:29:26.921Z,72.13
2022-10-30T10:30:26.904Z,70.43
2022-10-30T10:31:26.908Z,71.12
2022-10-30T10:32:26.894Z,71.83
2022-10-30T10:33:26.879Z,70.53
2022-10-30T10:34:26.881Z,70.43
2022-10-30T10:35:26.857Z,70.79
2022-10-30T10:36:26.844Z,71.50
2022-10-30T10:37:26.836Z,71.30
2022-10-30T10:38:26.822Z,70.59
2022-10-30T10:39:26.810Z,70.79
2022-10-30T10:40:26.792Z,71.30
2022-10-30T10:41:26.794Z,70.39
2022-10-30T10:42:26.777Z,70.09
2022-10-30T10:43:26.760Z,69.89
2022-10-30T10:44:26.756Z,71.09
2022-10-30T10:45:26.738Z,70.89
2022-10-30T10:46:26.724Z,70.50
2022-10-30T10:47:26.717Z,71.30
2022-10-30T10:48:26.710Z,71.30
2022-10-30T10:49:26.695Z,71.59
2022-10-30T10:50:26.709Z,71.50
2022-10-30T10:51:26.678Z,71.50
2022-10-30T10:52:26.667Z,71.69
2022-10-30T10:53:26.676Z,71.39
2022-10-30T10:54:26.643Z,70.79
2022-10-30T10:55:26.627Z,70.39
2022-10-30T10:56:26.619Z,70.59
2022-10-30T10:57:26.608Z,70.59
2022-10-30T10:58:26.610Z,71.56
2022-10-30T10:59:26.585Z,70.36
2022-10-30T11:00:26.577Z,69.86
2022-10-30T11:01:26.645Z,69.16
2022-10-30T11:02:26.755Z,69.86
2022-10-30T11:03:26.554Z,69.82
2022-10-30T11:04:26.525Z,69.93
2022-10-30T11:05:26.520Z,69.62
2022-10-30T11:06:26.527Z,69.23
2022-10-30T11:07:26.508Z,69.43
2022-10-30T11:08:26.495Z,69.93
2022-10-30T11:09:26.482Z,70.32
2022-10-30T11:10:26.467Z,69.62
2022-10-30T11:11:26.491Z,68.89
2022-10-30T11:12:28.549Z,69.59
2022-10-30T11:13:27.440Z,70.09
2022-10-30T11:14:26.418Z,70.79
2022-10-30T11:15:26.411Z,69.19
2022-10-30T11:16:26.415Z,69.49
2022-10-30T11:17:26.394Z,69.49
2022-10-30T11:18:26.382Z,69.09
2022-10-30T11:19:26.376Z,67.99
2022-10-30T11:20:26.352Z,68.19
2022-10-30T11:21:26.350Z,68.49
2022-10-30T11:22:26.351Z,67.89
2022-10-30T11:23:26.337Z,68.66
2022-10-30T11:24:26.340Z,68.59
2022-10-30T11:25:30.185Z,68.26
2022-10-30T11:26:27.286Z,69.46
2022-10-30T11:27:26.296Z,69.56
2022-10-30T11:28:26.265Z,67.06
2022-10-30T11:29:26.255Z,67.56
2022-10-30T11:30:26.266Z,67.36
2022-10-30T11:31:26.230Z,67.36
2022-10-30T11:32:26.220Z,68.06
2022-10-30T11:33:26.244Z,66.96
2022-10-30T11:34:26.210Z,66.96
2022-10-30T11:35:26.188Z,67.06
2022-10-30T11:36:26.183Z,67.66
2022-10-30T11:37:26.165Z,67.46
2022-10-30T11:38:26.169Z,67.96
2022-10-30T11:39:26.167Z,67.66
2022-10-30T11:40:26.127Z,67.96
2022-10-30T11:41:26.119Z,67.66
2022-10-30T11:42:26.106Z,68.06
2022-10-30T11:43:26.098Z,68.46
2022-10-30T11:44:26.104Z,68.26
2022-10-30T11:45:26.084Z,67.76
2022-10-30T11:46:26.067Z,67.66
2022-10-30T11:47:26.115Z,68.06
2022-10-30T11:48:27.067Z,67.26
2022-10-30T11:49:26.035Z,68.66
2022-10-30T11:50:26.033Z,67.26
2022-10-30T11:51:26.034Z,68.06
2022-10-30T11:52:26.008Z,67.76
2022-10-30T11:53:25.985Z,67.56
2022-10-30T11:54:25.991Z,67.46
2022-10-30T11:55:25.969Z,67.66
2022-10-30T11:56:25.962Z,69.06
2022-10-30T11:57:25.941Z,68.26
2022-10-30T11:58:25.937Z,67.46
2022-10-30T11:59:25.921Z,67.86
2022-10-30T12:00:25.914Z,67.06
2022-10-30T12:01:25.936Z,66.66
2022-10-30T12:02:26.053Z,66.86
2022-10-30T12:03:25.891Z,67.06
2022-10-30T12:04:25.863Z,67.86
2022-10-30T12:05:25.894Z,67.56
2022-10-30T12:06:25.861Z,67.06
2022-10-30T12:07:25.831Z,67.36
2022-10-30T12:08:25.816Z,67.46
2022-10-30T12:09:25.831Z,67.56
2022-10-30T12:10:25.813Z,67.09
2022-10-30T12:11:25.819Z,67.59
2022-10-30T12:12:25.781Z,67.99
2022-10-30T12:13:25.778Z,67.69
2022-10-30T12:14:25.759Z,67.29
2022-10-30T12:15:25.742Z,67.79
2022-10-30T12:16:25.728Z,68.29
2022-10-30T12:17:25.720Z,68.29
2022-10-30T12:18:25.814Z,68.29
2022-10-30T12:19:25.708Z,69.19
2022-10-30T12:20:25.689Z,67.79
2022-10-30T12:21:25.672Z,67.59
2022-10-30T12:22:25.670Z,67.59
2022-10-30T12:23:25.652Z,67.49
2022-10-30T12:24:25.639Z,67.49
2022-10-30T12:25:25.664Z,67.40
2022-10-30T12:26:25.638Z,67.40
2022-10-30T12:27:25.612Z,68.02
2022-10-30T12:28:25.631Z,67.63
2022-10-30T12:29:36.490Z,67.82
2022-10-30T12:30:26.583Z,67.93
2022-10-30T12:31:25.603Z,68.23
2022-10-30T12:32:25.560Z,68.52
2022-10-30T12:33:25.552Z,67.72
2022-10-30T12:34:25.530Z,68.13
2022-10-30T12:35:25.531Z,68.32
2022-10-30T12:36:25.521Z,67.82
2022-10-30T12:37:25.509Z,68.23
2022-10-30T12:38:25.486Z,68.23
2022-10-30T12:39:25.489Z,68.32
2022-10-30T12:40:25.466Z,68.82
2022-10-30T12:41:25.475Z,68.52
2022-10-30T12:42:25.462Z,68.93
2022-10-30T12:43:25.432Z,68.59
2022-10-30T12:44:25.418Z,68.79
2022-10-30T12:45:25.411Z,68.09
2022-10-30T12:46:25.433Z,68.16
2022-10-30T12:47:25.400Z,68.16
2022-10-30T12:48:25.374Z,68.16
2022-10-30T12:49:25.366Z,67.86
2022-10-30T12:50:25.358Z,67.66
2022-10-30T12:51:32.444Z,67.89
2022-10-30T12:52:25.327Z,68.69
2022-10-30T12:53:25.332Z,68.46
2022-10-30T12:54:25.306Z,68.49
2022-10-30T12:55:25.306Z,67.69